AirNav   Air Wisconsin Up To $57,000 Bonus
 
 1025 users online  

70NR Ruby's Landing Airport
Newton Grove, North Carolina, USA

GOING TO NEWTON GROVE?


FAA INFORMATION EFFECTIVE 01 DECEMBER 2022

Location

FAA Identifier: 70NR
Lat/Long: 35-13-10.0800N 078-22-00.7000W
35-13.168000N 078-22.011667W
35.2194667,-78.3668611
(estimated)
Elevation: 144 ft. / 44 m (estimated)
From city: 2 miles S of NEWTON GROVE, NC
Time zone: UTC -5 (UTC -4 during Daylight Saving Time)
Zip code: 28328

Airport Operations

Airport use: Private use. Permission required prior to landing
Activation date: 10/2013
Control tower: no
ARTCC: WASHINGTON CENTER
FSS: RALEIGH FLIGHT SERVICE STATION
Attendance: UNATNDD
Wind indicator: yes
Segmented circle: no

Airport Communications

WX AWOS-3 at CTZ (15 nm S): 119.125 (910-592-7488)
WX AWOS-3 at JNX (19 nm N): 120.225 (919-934-3851)

Nearby radio navigation aids

VOR radial/distance  VOR name  Freq  Var
FAYr065/28.6FAYETTEVILLE VOR/DME114.8504W

 
NDB name  Hdg/Dist  Freq  Var  ID
CLINTON008/14.741209WCTZ -.-. - --..
HARNETT138/19.841708WHQT .... --.- -

Airport Services

Runway Information

Runway 17/35

Dimensions: 2655 x 80 ft. / 809 x 24 m
Surface: turf, in good condition
RUNWAY 17  RUNWAY 35
Traffic pattern: leftleft
Obstructions: 80 ft. trees, 300 ft. from runway50 ft. pline, 500 ft. from runway

Airport Ownership and Management from official FAA records

Ownership: Privately-owned
Owner: KENNETH E. COX
1470 MCLAMB RD
NEWTON GROVE, NC 28366
Phone 910-594-1927
Manager: KENNETH E. COX
1470 MCLAMB RD
NEWTON GROVE, NC 28366
Phone 910-352-7323

Airport Operational Statistics

Aircraft based on the field: 2
Single engine airplanes: 2
    

Additional Remarks

ARPT LCTD BNTH MIL TRNG RTE. ATTN LOW FLYING ACFT.
FOR CD CTC WASHINGTON ARTCC AT 703-771-3587.

Instrument Procedures

There are no published instrument procedures at 70NR.

Some nearby airports with instrument procedures:

KCTZ - Clinton-Sampson County Airport (15 nm S)
W40 - Mount Olive Municipal Airport (16 nm E)
KJNX - Johnston Regional Airport (19 nm N)
KHRJ - Harnett Regional Jetport Airport (20 nm NW)
KGSB - Seymour Johnson Air Force Base (21 nm E)
 
Loc | Ops | Rwys | IFR | FBO | Links
Com | Nav | Svcs | Stats | Notes
Aerial photo
No photo
 
Airport distance calculator
Flying to Ruby's Landing Airport? Find the distance to fly.

From to 70NR

Sunrise and sunset
Times for 06-Dec-2022
 Local
(UTC-5)
 Zulu
(UTC)
Morning civil twilight06:4111:41
Sunrise07:0912:09
Sunset17:0022:00
Evening civil twilight17:2822:28

Current date and time
Zulu (UTC)  07-Dec-2022 03:59:37
Local (UTC-5)  06-Dec-2022 22:59:37
 
METAR
KCTZ 
14nm S 
070355Z AUTO 00000KT 10SM OVC065 15/15 A3027 RMK AO2 T01520152
KJNX 
19nm N 
070335Z AUTO 00000KT 10SM BKN038 OVC050 13/13 A3025 RMK AO2
KGSB 
20nm E 
070255Z 00000KT 10SM BKN070 16/16 A3023 RMK AO2A SLP240 T01630160 52005 $
KHRJ 
20nm NW 
070335Z AUTO 00000KT 10SM SCT026 SCT040 SCT065 14/13 A3025 RMK AO2 T01430131
KDPL 
24nm SE 
070335Z AUTO 00000KT 5SM HZ OVC070 14/ A3027 RMK AO2
KGWW 
25nm NE 
070355Z AUTO 00000KT 10SM OVC065 15/15 A3026 RMK AO2 T01500150
KFBG 
28nm W 
070310Z AUTO 11003KT 10SM SCT026 BKN050 OVC110 15/14 A3022 RMK AO2 SLP236 $
TAF
KGSB 
20nm E 
062313Z 0623/0803 VRB06KT 9999 BKN060 QNH3018INS BECMG 0703/0704 VRB06KT 9999 BKN030 BKN050 QNH3023INS BECMG 0705/0706 VRB06KT 6000 BR BKN012 BKN200 QNH3023INS BECMG 0710/0711 24008KT 9999 NSW BKN020 BKN240 QNH3020INS TEMPO 0719/0722 25009KT 8000 -DZ TX19/0623Z TN13/0712Z
NOTAMs
Click for the latest NOTAMs
NOTAMs are issued by the DoD/FAA and will open in a separate window not controlled by AirNav.

 

 
 

Would you like to see your business listed on this page?

 If your business provides an interesting product or service to pilots, flight crews, aircraft, or users of the Ruby's Landing Airport, you should consider listing it here.  To start the listing process, click on the button below
 
Add a business
 

Other Pages about Ruby's Landing Airport

Update a link
 
Copyright © AirNav, LLC. All rights reserved. Privacy Policy  Contact